Aérodrome :







RETROUVEZ-NOUS SUR...

 
LOGIN :

S'inscrire | Disclaimer

   EN    FR    IT 

 









Légende :    VFR   VFR Marginal   IFR   IFR Intensif   IFR Très Intensif
Visi : 
Plafond : 
>= 8 km
>= 3000ft
5 à 8 km
1000 à 3000 ft
1500m à 5 km
500 à 1000 ft
800 à 1500m
200 à 500 ft
< 800m
< 200 ft
Symboles :   Orages  Brouillard  Fortes neiges  Fortes précipitations  Vent > 20 kt






- Altitude de l'aérodrome : 555 ft


KORE - Orange Municipal

DERNIER METAR :
  • 102252Z AUTO 30005KT 10SM -RA OVC033 07/03 A2986 RMK AO2 PK WND 31029/2201 WSHFT 2147 SLP114 P0001 T00720028

METARs EXPIRÉS :
  • 102230Z AUTO 29012G22KT 10SM -RA FEW026 OVC031 08/03 A2986 RMK AO2 PK WND 31029/2201 WSHFT 2147 PRESRR P0001 T00780033
  • 102207Z AUTO 29017G29KT 10SM -RA SCT014 BKN023 OVC031 09/04 A2982 RMK AO2 PK WND 31029/2201 WSHFT 2147 P0000 T00890044
  • 102152Z AUTO 29017G22KT 10SM -RA FEW014 SCT018 OVC024 11/08 A2979 RMK AO2 RAB15 PRESRR SLP089 P0000 T01060078
  • 102125Z AUTO 20006KT 10SM -RA BKN025 BKN029 OVC060 11/09 A2975 RMK AO2 RAB15 P0000 T01110089
  • 102052Z AUTO 20008KT 10SM OVC060 12/09 A2973 RMK AO2 RAB04E22 SLP068 P0000 60001 T01170089 53002

TAF N/A



MET'MAP, la Météo Aéronautique d'un coup d'oeil ! - Copyright ORBIFLY Décembre 2007 - Disclaimer

ORBIFLY MET'MAP TEAM :

Programmation & Développement : Alexandra Zaïnal
Sur une idée originale de : Baudouin d'Aumeries
Assistance à la programmation : Marc-Olivier Méhu
Soutien technique & logistique : Manuel Goepfert

Contact : metmap@orbifly.com




SOURCES & CREDITS :

   NOAA